Time;durP1;ratioP1;P1;durP2;ratioP2;P2;SDS_P1;SDS_P2;PMS_P1;PMS_P2;Temp;Humidity;BMP_temperature;BMP_pressure;BME280_temperature;BME280_humidity;BME280_pressure;Samples;Min_cycle;Max_cycle;Signal;HPM_P1;HPM_P2
2022/07/04 00:00:20;;;;;;;3.20;2.58;;;14.40;99.90;;;;;;4974165;28;20085;-71
2022/07/04 00:02:47;;;;;;;5.07;2.53;;;14.40;99.90;;;;;;4974349;28;20050;-71
2022/07/04 00:05:13;;;;;;;6.50;3.08;;;14.40;99.90;;;;;;4993070;28;20487;-71
2022/07/04 00:07:45;;;;;;;5.85;2.65;;;14.30;99.90;;;;;;4977860;28;20046;-71
2022/07/04 00:10:12;;;;;;;3.70;2.28;;;14.30;99.90;;;;;;4977506;28;20049;-71
2022/07/04 00:12:38;;;;;;;3.97;2.20;;;14.40;99.90;;;;;;4977681;28;20121;-71
2022/07/04 00:15:05;;;;;;;3.17;2.22;;;14.40;99.90;;;;;;4995236;28;20041;-71
2022/07/04 00:17:31;;;;;;;8.55;2.33;;;14.30;99.90;;;;;;4977879;28;20089;-71
2022/07/04 00:19:57;;;;;;;4.93;2.80;;;14.30;99.90;;;;;;4977517;28;20144;-71
2022/07/04 00:22:23;;;;;;;3.03;2.38;;;14.30;99.90;;;;;;4977863;28;20555;-71
2022/07/04 00:24:48;;;;;;;3.90;2.38;;;14.20;99.90;;;;;;4995259;28;20042;-71
2022/07/04 00:27:14;;;;;;;2.85;2.55;;;14.20;99.90;;;;;;4977619;28;20130;-71
2022/07/04 00:29:40;;;;;;;4.72;2.38;;;14.20;99.90;;;;;;4977135;28;20039;-71
2022/07/04 00:32:06;;;;;;;5.00;2.33;;;14.10;99.90;;;;;;4977691;28;20042;-71
2022/07/04 00:34:31;;;;;;;5.85;2.50;;;14.10;99.90;;;;;;4977300;28;20084;-71
2022/07/04 00:36:57;;;;;;;5.43;2.40;;;14.10;99.90;;;;;;4977497;28;20065;-71
2022/07/04 00:39:23;;;;;;;6.10;2.90;;;14.10;99.90;;;;;;4977032;28;20042;-71
2022/07/04 00:41:48;;;;;;;6.13;3.33;;;14.10;99.90;;;;;;4977385;28;20034;-71
2022/07/04 00:44:15;;;;;;;4.78;2.83;;;14.10;99.90;;;;;;4977327;28;20080;-71
2022/07/04 00:46:42;;;;;;;4.68;3.13;;;14.00;99.90;;;;;;4977206;28;20042;-71
2022/07/04 00:49:09;;;;;;;8.63;3.78;;;14.00;99.90;;;;;;4961122;28;20057;-71
2022/07/04 00:51:36;;;;;;;6.90;4.05;;;13.90;99.90;;;;;;4976956;28;20488;-71
2022/07/04 00:54:02;;;;;;;5.47;3.90;;;14.00;99.90;;;;;;4977165;28;20046;-71
2022/07/04 00:56:29;;;;;;;7.38;3.70;;;14.00;99.90;;;;;;4977418;28;20049;-71
2022/07/04 00:58:54;;;;;;;7.20;4.32;;;13.90;99.90;;;;;;4960988;28;20096;-71
2022/07/04 01:01:20;;;;;;;8.02;4.63;;;13.90;99.90;;;;;;4960785;28;20034;-71
2022/07/04 01:03:47;;;;;;;6.07;4.20;;;14.00;99.90;;;;;;4977078;28;20038;-71
2022/07/04 01:06:14;;;;;;;6.13;4.15;;;13.90;99.90;;;;;;4977080;28;20057;-71
2022/07/04 01:08:43;;;;;;;5.68;4.03;;;13.90;99.90;;;;;;4961019;28;20048;-70
2022/07/04 01:11:09;;;;;;;8.80;4.90;;;13.90;99.90;;;;;;4976691;28;20384;-71
2022/07/04 01:13:35;;;;;;;5.55;4.35;;;13.90;99.90;;;;;;4977002;28;20411;-70
2022/07/04 01:16:02;;;;;;;7.65;4.10;;;13.90;99.90;;;;;;4976733;28;20061;-71
2022/07/04 01:18:27;;;;;;;5.57;4.05;;;13.90;99.90;;;;;;4993694;28;20042;-71
2022/07/04 01:20:53;;;;;;;6.53;4.53;;;13.90;99.90;;;;;;4993760;28;20038;-71
2022/07/04 01:23:18;;;;;;;6.30;4.35;;;13.90;99.90;;;;;;4994129;28;20084;-71
2022/07/04 01:25:44;;;;;;;7.78;5.40;;;13.90;99.90;;;;;;4976771;28;20046;-71
2022/07/04 01:28:10;;;;;;;7.03;4.60;;;13.90;99.90;;;;;;4976785;28;20136;-71
2022/07/04 01:30:37;;;;;;;9.05;4.20;;;13.90;99.90;;;;;;4976191;28;20038;-71
2022/07/04 01:33:03;;;;;;;5.85;4.70;;;13.90;99.90;;;;;;4976374;28;20051;-71
2022/07/04 01:35:29;;;;;;;6.57;4.65;;;13.80;99.90;;;;;;4976727;28;20039;-71
2022/07/04 01:37:55;;;;;;;5.50;4.20;;;13.80;99.90;;;;;;4976467;28;20034;-71
2022/07/04 01:40:20;;;;;;;6.70;4.50;;;13.90;99.90;;;;;;4975916;28;20038;-71
2022/07/04 01:42:46;;;;;;;5.70;4.13;;;13.90;99.90;;;;;;4976185;28;20133;-71
2022/07/04 01:45:12;;;;;;;7.75;4.10;;;14.00;99.90;;;;;;4976005;28;20389;-71
2022/07/04 01:47:38;;;;;;;7.75;4.88;;;13.80;99.90;;;;;;4959830;28;20193;-71
2022/07/04 01:50:05;;;;;;;7.15;5.22;;;13.90;99.90;;;;;;4975639;28;20050;-71
2022/07/04 01:52:31;;;;;;;8.77;5.07;;;13.90;99.90;;;;;;4976108;28;20488;-71
2022/07/04 01:54:57;;;;;;;10.27;4.72;;;13.90;99.90;;;;;;4976145;28;20042;-71
2022/07/04 01:57:22;;;;;;;7.85;4.85;;;14.00;99.90;;;;;;4993405;28;20576;-71
2022/07/04 02:02:32;;;;;;;9.48;4.95;;;13.90;99.90;;;;;;4975761;28;20046;-70
2022/07/04 02:04:57;;;;;;;7.50;4.43;;;14.00;99.90;;;;;;4976117;28;20381;-71
2022/07/04 02:07:23;;;;;;;8.68;4.75;;;14.00;99.90;;;;;;4993488;28;20049;-71
2022/07/04 02:09:49;;;;;;;8.95;5.32;;;14.00;99.90;;;;;;4992871;28;20038;-71
2022/07/04 02:15:00;;;;;;;8.20;4.85;;;14.00;99.90;;;;;;4962581;28;20061;-71
2022/07/04 02:17:26;;;;;;;6.50;4.97;;;14.00;99.90;;;;;;4975498;28;20042;-71
2022/07/04 02:19:52;;;;;;;8.68;4.85;;;14.00;99.90;;;;;;4992514;28;20064;-71
2022/07/04 02:22:17;;;;;;;7.32;5.13;;;13.90;99.90;;;;;;4975468;28;20045;-71
2022/07/04 02:24:43;;;;;;;6.03;4.40;;;14.00;99.90;;;;;;4975411;28;20034;-71
2022/07/04 02:27:09;;;;;;;6.15;4.50;;;14.00;99.90;;;;;;4992760;28;20042;-71
2022/07/04 02:29:35;;;;;;;5.32;3.97;;;13.90;99.90;;;;;;4975003;28;20069;-71
2022/07/04 02:32:00;;;;;;;9.23;4.47;;;14.00;99.90;;;;;;4975650;28;20035;-71
2022/07/04 02:34:26;;;;;;;7.15;4.47;;;14.00;99.90;;;;;;4992744;28;20569;-71
2022/07/04 02:36:52;;;;;;;5.30;4.22;;;14.10;99.90;;;;;;4992744;28;20399;-71
2022/07/04 02:39:17;;;;;;;6.65;4.25;;;14.10;99.90;;;;;;4975191;28;20042;-71
2022/07/04 02:41:43;;;;;;;6.53;4.53;;;14.00;99.90;;;;;;4992583;28;20046;-71
2022/07/04 02:44:09;;;;;;;6.53;4.10;;;13.90;99.90;;;;;;4975093;28;20050;-71
2022/07/04 02:46:35;;;;;;;6.97;4.07;;;13.90;99.90;;;;;;4975306;28;20109;-71
2022/07/04 02:49:02;;;;;;;6.82;3.85;;;13.80;99.90;;;;;;4974997;28;20093;-71
2022/07/04 02:51:28;;;;;;;6.32;3.47;;;13.80;99.90;;;;;;4975065;28;20046;-71
2022/07/04 02:53:53;;;;;;;6.65;4.10;;;13.80;99.90;;;;;;4992382;28;20039;-71
2022/07/04 02:56:19;;;;;;;5.18;3.88;;;13.70;99.90;;;;;;4992387;28;20061;-71
2022/07/04 02:58:45;;;;;;;6.93;3.78;;;13.60;99.90;;;;;;5019309;23;20052;-68
2022/07/04 03:01:12;;;;;;;7.38;4.35;;;13.60;99.90;;;;;;4993893;28;20053;-67
2022/07/04 03:03:39;;;;;;;6.25;4.07;;;13.60;99.90;;;;;;4994582;28;20105;-67
2022/07/04 03:06:05;;;;;;;6.15;3.67;;;13.50;99.90;;;;;;5012326;28;20125;-67
2022/07/04 03:08:31;;;;;;;4.53;3.90;;;13.50;99.90;;;;;;5011745;28;20388;-68
2022/07/04 03:10:57;;;;;;;4.80;3.90;;;13.50;99.90;;;;;;5010433;28;20042;-67
2022/07/04 03:13:22;;;;;;;6.53;4.10;;;13.50;99.90;;;;;;5011207;28;20064;-67
2022/07/04 03:15:48;;;;;;;7.50;4.00;;;13.40;99.90;;;;;;5011785;28;20033;-67
2022/07/04 03:18:13;;;;;;;5.82;4.70;;;13.40;99.90;;;;;;5011840;28;20049;-67
2022/07/04 03:20:39;;;;;;;8.02;4.60;;;13.40;99.90;;;;;;5011516;28;20384;-67
2022/07/04 03:23:04;;;;;;;8.40;4.57;;;13.30;99.90;;;;;;4994282;28;20128;-69
2022/07/04 03:25:30;;;;;;;5.47;3.78;;;13.30;99.90;;;;;;5011762;28;20038;-69
2022/07/04 03:27:55;;;;;;;5.45;3.70;;;13.20;99.90;;;;;;5011927;28;20042;-69
2022/07/04 03:30:21;;;;;;;5.50;4.05;;;13.30;99.90;;;;;;5011406;28;20042;-69
2022/07/04 03:32:47;;;;;;;8.98;5.15;;;13.20;99.90;;;;;;5011840;28;20045;-69
2022/07/04 03:35:12;;;;;;;9.00;5.40;;;13.20;99.90;;;;;;5011769;28;20056;-69
2022/07/04 03:37:38;;;;;;;8.80;4.85;;;13.30;99.90;;;;;;4994376;28;20046;-69
2022/07/04 03:40:04;;;;;;;6.47;4.97;;;13.30;99.90;;;;;;4995030;28;20049;-69
2022/07/04 03:42:30;;;;;;;6.05;4.80;;;13.30;99.90;;;;;;5015687;28;20038;-69
2022/07/04 03:44:56;;;;;;;6.85;5.10;;;13.30;99.90;;;;;;5015729;28;20593;-69
2022/07/04 03:47:22;;;;;;;9.45;5.22;;;13.30;99.90;;;;;;5015643;28;20049;-69
2022/07/04 03:49:47;;;;;;;11.15;5.55;;;13.30;99.90;;;;;;5015151;28;20088;-69
2022/07/04 03:52:13;;;;;;;10.35;5.95;;;13.40;99.90;;;;;;5015366;28;20045;-69
2022/07/04 03:54:39;;;;;;;10.02;5.55;;;13.40;99.90;;;;;;5015157;28;20046;-69
2022/07/04 03:57:04;;;;;;;8.38;5.38;;;13.40;99.90;;;;;;5015428;28;20040;-69
2022/07/04 03:59:30;;;;;;;8.05;5.05;;;13.50;99.90;;;;;;5014810;28;20064;-69
2022/07/04 04:01:56;;;;;;;7.45;6.00;;;13.40;99.90;;;;;;5015187;28;20034;-69
2022/07/04 04:07:06;;;;;;;7.60;5.90;;;13.60;99.90;;;;;;5015051;28;20126;-69
2022/07/04 04:09:32;;;;;;;9.55;6.00;;;13.60;99.90;;;;;;5014933;28;20082;-69
2022/07/04 04:11:57;;;;;;;6.70;5.93;;;13.60;99.90;;;;;;5015202;28;20038;-69
2022/07/04 04:14:24;;;;;;;8.85;5.13;;;13.60;99.90;;;;;;5014991;28;20049;-69
2022/07/04 04:16:50;;;;;;;6.80;5.47;;;13.60;99.90;;;;;;5015092;28;20038;-69
2022/07/04 04:19:15;;;;;;;9.35;5.50;;;13.70;99.90;;;;;;5014597;28;20038;-69
2022/07/04 04:21:41;;;;;;;6.50;5.70;;;13.80;99.90;;;;;;5014769;28;20042;-69
2022/07/04 04:24:07;;;;;;;8.05;5.63;;;13.80;99.90;;;;;;4997230;28;20406;-69
2022/07/04 04:26:33;;;;;;;8.10;6.00;;;13.70;99.90;;;;;;5014864;28;20450;-69
2022/07/04 04:28:59;;;;;;;8.30;5.72;;;13.80;99.90;;;;;;4997002;28;20045;-69
2022/07/04 04:31:24;;;;;;;9.20;6.40;;;13.80;99.90;;;;;;5014428;28;20510;-69
2022/07/04 04:33:50;;;;;;;6.72;5.70;;;13.80;99.90;;;;;;5014480;28;20462;-69
2022/07/04 04:36:16;;;;;;;7.15;6.25;;;13.90;99.90;;;;;;5014396;28;20045;-69
2022/07/04 04:38:41;;;;;;;7.43;5.93;;;13.90;99.90;;;;;;5014644;28;20069;-69
2022/07/04 04:41:07;;;;;;;9.77;6.22;;;14.00;99.90;;;;;;5014313;28;20033;-69
2022/07/04 04:43:32;;;;;;;9.07;6.57;;;13.90;99.90;;;;;;5014558;28;20414;-69
2022/07/04 04:45:58;;;;;;;9.57;6.75;;;14.00;99.90;;;;;;5014483;28;20574;-69
2022/07/04 04:48:23;;;;;;;7.72;6.30;;;14.20;99.90;;;;;;5014339;28;20527;-69
2022/07/04 04:50:49;;;;;;;10.05;7.15;;;14.40;99.90;;;;;;5013456;28;20458;-69
2022/07/04 04:53:14;;;;;;;10.20;7.10;;;14.50;99.90;;;;;;5013702;28;20585;-69
2022/07/04 04:55:40;;;;;;;9.20;6.25;;;14.70;99.90;;;;;;5014287;28;20113;-69
2022/07/04 04:58:06;;;;;;;8.27;6.53;;;15.00;99.90;;;;;;5014118;28;20092;-69
2022/07/04 05:00:31;;;;;;;8.85;6.55;;;15.10;99.90;;;;;;5013606;28;20472;-69
2022/07/04 05:02:57;;;;;;;8.85;6.47;;;15.40;99.90;;;;;;5014071;28;20125;-69
2022/07/04 05:05:23;;;;;;;8.10;6.22;;;15.60;99.90;;;;;;5013984;28;20045;-69
2022/07/04 05:07:49;;;;;;;8.90;6.45;;;15.90;99.90;;;;;;5014007;28;20048;-69
2022/07/04 05:10:15;;;;;;;11.60;6.43;;;16.20;99.90;;;;;;5013756;28;20045;-69
2022/07/04 05:12:45;;;;;;;8.57;6.05;;;16.20;99.90;;;;;;5013975;28;20042;-69
2022/07/04 05:15:11;;;;;;;7.05;5.75;;;16.40;99.90;;;;;;5013958;28;20033;-69
2022/07/04 05:17:36;;;;;;;8.88;5.97;;;16.70;99.90;;;;;;5013798;28;20041;-70
2022/07/04 05:20:03;;;;;;;8.50;6.05;;;16.80;99.90;;;;;;5013215;28;20044;-67
2022/07/04 05:22:28;;;;;;;7.65;6.07;;;17.10;99.90;;;;;;5013794;28;20041;-67
2022/07/04 05:24:54;;;;;;;8.07;5.53;;;17.40;99.90;;;;;;5013676;28;20045;-67
2022/07/04 05:27:20;;;;;;;9.65;6.07;;;17.80;99.90;;;;;;5013511;28;20041;-67
2022/07/04 05:29:45;;;;;;;9.32;5.15;;;18.00;99.90;;;;;;5013159;28;20057;-68
2022/07/04 05:32:11;;;;;;;7.00;5.05;;;18.30;99.90;;;;;;5013442;28;20038;-68
2022/07/04 05:34:37;;;;;;;7.00;4.90;;;18.60;99.90;;;;;;5013095;28;20466;-68
2022/07/04 05:37:03;;;;;;;10.25;6.15;;;18.90;99.90;;;;;;5013261;28;20092;-68
2022/07/04 05:39:29;;;;;;;12.60;5.35;;;19.10;99.90;;;;;;5012968;28;20038;-68
2022/07/04 05:41:55;;;;;;;8.35;5.78;;;19.00;99.90;;;;;;4995681;28;20040;-68
2022/07/04 05:44:20;;;;;;;10.63;5.43;;;19.10;99.90;;;;;;5013227;28;20117;-68
2022/07/04 05:46:46;;;;;;;6.03;5.05;;;19.30;99.90;;;;;;4995860;28;20145;-68
2022/07/04 05:49:12;;;;;;;5.97;4.20;;;19.50;99.90;;;;;;4995087;28;20107;-68
2022/07/04 05:51:38;;;;;;;5.28;3.60;;;19.80;99.90;;;;;;4995350;28;20042;-69
2022/07/04 05:54:03;;;;;;;6.25;4.18;;;19.80;99.90;;;;;;4995299;28;20128;-70
2022/07/04 05:56:30;;;;;;;9.93;3.95;;;20.10;99.90;;;;;;5012839;28;20092;-69
2022/07/04 05:58:55;;;;;;;8.32;4.38;;;20.20;99.90;;;;;;4994848;28;20042;-69
2022/07/04 06:01:21;;;;;;;7.35;4.88;;;20.40;99.90;;;;;;5012562;28;20034;-69
2022/07/04 06:03:47;;;;;;;5.18;3.55;;;20.50;99.90;;;;;;5012137;28;20041;-70
2022/07/04 06:06:12;;;;;;;7.97;4.18;;;20.80;99.90;;;;;;4995087;28;20073;-69
2022/07/04 06:08:38;;;;;;;10.32;4.00;;;20.90;99.90;;;;;;4994940;28;20087;-69
2022/07/04 06:11:03;;;;;;;7.82;3.85;;;21.00;99.90;;;;;;5008109;28;20045;-69
2022/07/04 06:13:29;;;;;;;8.88;4.05;;;20.70;99.90;;;;;;5002345;28;20096;-70
2022/07/04 06:15:55;;;;;;;9.48;4.53;;;20.40;99.90;;;;;;4978918;28;20037;-68
2022/07/04 06:18:21;;;;;;;5.95;3.85;;;19.60;99.90;;;;;;5000203;28;20133;-69
2022/07/04 06:20:46;;;;;;;6.82;4.15;;;19.40;99.90;;;;;;4984599;28;20137;-69
2022/07/04 06:23:12;;;;;;;6.53;3.55;;;19.20;99.90;;;;;;4999430;28;20062;-69
2022/07/04 06:25:37;;;;;;;5.28;3.85;;;19.50;99.90;;;;;;5002651;28;20076;-69
2022/07/04 06:28:03;;;;;;;6.15;4.20;;;19.70;99.90;;;;;;4961820;28;20503;-69
2022/07/04 06:30:29;;;;;;;9.45;4.20;;;19.90;99.90;;;;;;4992312;28;20144;-69
2022/07/04 06:32:56;;;;;;;7.82;4.30;;;20.20;99.90;;;;;;4992494;28;20038;-69
2022/07/04 06:38:09;;;;;;;5.65;3.80;;;20.30;99.90;;;;;;4975161;28;20051;-69
2022/07/04 06:40:35;;;;;;;6.60;3.63;;;20.50;99.90;;;;;;4992182;28;20050;-69
2022/07/04 06:43:02;;;;;;;5.35;3.20;;;20.50;99.90;;;;;;4975439;28;20042;-69
2022/07/04 06:45:27;;;;;;;6.32;3.53;;;20.50;99.90;;;;;;4992247;28;20038;-70
2022/07/04 06:47:53;;;;;;;7.72;3.78;;;20.60;99.90;;;;;;4992505;28;20049;-70
2022/07/04 06:50:19;;;;;;;4.88;2.95;;;20.90;99.90;;;;;;4992129;28;20083;-71
2022/07/04 06:52:45;;;;;;;8.35;3.75;;;21.10;99.90;;;;;;4992432;28;20515;-69
2022/07/04 06:55:11;;;;;;;4.53;2.67;;;21.40;99.90;;;;;;4992439;28;20049;-69
2022/07/04 06:57:37;;;;;;;9.20;3.72;;;21.40;99.90;;;;;;4974831;28;20411;-70
2022/07/04 07:00:04;;;;;;;11.38;3.88;;;21.50;99.90;;;;;;4974314;28;20038;-70
2022/07/04 07:02:30;;;;;;;7.22;3.10;;;21.60;99.90;;;;;;4992273;28;20372;-69
2022/07/04 07:04:56;;;;;;;9.35;3.75;;;21.70;99.90;;;;;;4975059;28;20046;-70
2022/07/04 07:07:24;;;;;;;7.88;3.03;;;21.90;99.90;;;;;;4992161;28;20542;-70
2022/07/04 07:09:50;;;;;;;7.57;3.25;;;22.20;99.90;;;;;;4974592;28;20056;-70
2022/07/04 07:12:16;;;;;;;6.88;3.13;;;22.20;99.90;;;;;;4992241;28;20047;-70
2022/07/04 07:14:41;;;;;;;4.82;3.15;;;22.00;99.90;;;;;;4975228;28;20042;-70
2022/07/04 07:17:07;;;;;;;8.82;3.35;;;22.00;99.90;;;;;;4996412;28;20038;-70
2022/07/04 07:19:33;;;;;;;9.77;3.70;;;22.30;99.90;;;;;;4996042;28;20444;-70
2022/07/04 07:21:59;;;;;;;9.82;3.28;;;22.00;99.90;;;;;;4978567;28;20046;-70
2022/07/04 07:24:25;;;;;;;8.50;3.22;;;21.90;99.90;;;;;;4996122;28;20035;-70
2022/07/04 07:26:51;;;;;;;9.73;3.40;;;21.90;99.90;;;;;;4996101;28;20052;-70
2022/07/04 07:29:17;;;;;;;7.80;3.58;;;21.90;99.90;;;;;;4995432;28;20141;-69
2022/07/04 07:31:43;;;;;;;7.10;3.30;;;21.80;99.90;;;;;;4996003;28;20046;-70
2022/07/04 07:34:08;;;;;;;10.38;3.78;;;21.70;99.90;;;;;;4995841;28;20100;-70
2022/07/04 07:36:34;;;;;;;5.70;3.15;;;21.60;99.90;;;;;;5000970;28;20064;-70
2022/07/04 07:39:00;;;;;;;8.75;3.50;;;21.80;99.90;;;;;;5004846;28;20042;-70
2022/07/04 07:41:26;;;;;;;8.98;3.20;;;22.00;99.90;;;;;;5003986;28;20077;-70
2022/07/04 07:43:51;;;;;;;6.35;3.13;;;22.00;99.90;;;;;;4995294;28;20070;-69
2022/07/04 07:46:17;;;;;;;8.75;3.22;;;21.60;99.90;;;;;;4995847;28;20034;-70
2022/07/04 07:48:42;;;;;;;9.75;2.80;;;21.80;99.90;;;;;;4995683;28;20073;-70
2022/07/04 07:51:10;;;;;;;7.68;2.88;;;22.00;99.90;;;;;;4995256;28;20038;-70
2022/07/04 07:53:36;;;;;;;8.55;3.85;;;21.50;99.90;;;;;;4985456;28;20034;-69
2022/07/04 07:56:02;;;;;;;9.27;3.55;;;21.40;99.90;;;;;;5003232;28;20031;-70
2022/07/04 07:58:28;;;;;;;7.45;2.58;;;21.60;99.90;;;;;;4995104;28;20041;-70
2022/07/04 08:00:54;;;;;;;11.25;2.92;;;21.90;99.90;;;;;;4977671;28;20441;-70
2022/07/04 08:06:03;;;;;;;7.40;3.08;;;22.20;99.90;;;;;;4995224;28;20046;-69
2022/07/04 08:08:29;;;;;;;7.57;3.00;;;21.80;99.90;;;;;;4995261;28;20542;-69
2022/07/04 08:10:54;;;;;;;9.38;3.40;;;21.70;99.90;;;;;;4976976;28;20046;-69
2022/07/04 08:13:20;;;;;;;6.90;2.50;;;21.40;99.90;;;;;;4977865;28;20069;-70
2022/07/04 08:15:46;;;;;;;6.43;2.22;;;21.20;99.90;;;;;;4995393;28;20081;-69
2022/07/04 08:18:12;;;;;;;5.30;2.10;;;21.40;99.90;;;;;;4995233;28;20104;-70
2022/07/04 08:20:38;;;;;;;4.55;2.15;;;21.10;99.90;;;;;;4994819;28;20495;-70
2022/07/04 08:23:03;;;;;;;6.80;1.95;;;20.80;99.90;;;;;;4969126;28;20050;-70
2022/07/04 08:25:29;;;;;;;4.07;1.63;;;20.60;99.90;;;;;;5005019;28;20124;-69
2022/07/04 08:27:55;;;;;;;7.47;1.75;;;20.40;99.90;;;;;;5003828;28;20046;-69
2022/07/04 08:30:20;;;;;;;3.47;1.80;;;20.10;99.90;;;;;;5008617;28;20045;-69
2022/07/04 08:32:46;;;;;;;6.05;2.47;;;19.90;99.90;;;;;;5011528;28;20041;-69
2022/07/04 08:35:12;;;;;;;4.28;2.03;;;19.80;99.90;;;;;;5014637;28;20519;-69
2022/07/04 08:37:40;;;;;;;8.43;1.80;;;19.70;99.90;;;;;;5008416;28;20038;-69
2022/07/04 08:40:07;;;;;;;6.97;2.35;;;19.60;99.90;;;;;;5013991;28;20049;-69
2022/07/04 08:42:39;;;;;;;4.07;1.98;;;19.60;99.90;;;;;;4996302;28;20042;-69
2022/07/04 08:45:06;;;;;;;3.95;2.03;;;19.50;99.90;;;;;;5010973;28;20498;-69
2022/07/04 08:47:34;;;;;;;7.07;1.90;;;19.40;99.90;;;;;;5013809;28;20034;-69
2022/07/04 08:50:03;;;;;;;4.53;2.40;;;19.40;99.90;;;;;;4995809;28;20116;-69
2022/07/04 08:52:36;;;;;;;5.20;1.83;;;19.40;99.90;;;;;;5010845;28;20049;-69
2022/07/04 09:00:34;;;;;;;7.85;3.00;;;18.80;99.90;;;;;;5014931;28;20488;-69
2022/07/04 09:03:02;;;;;;;8.93;2.83;;;18.70;99.90;;;;;;5013511;28;20053;-69
2022/07/04 09:05:27;;;;;;;4.28;2.10;;;18.50;99.90;;;;;;4995823;28;20034;-69
2022/07/04 09:07:54;;;;;;;9.75;2.28;;;18.60;99.90;;;;;;5013550;28;20034;-69
2022/07/04 09:10:21;;;;;;;6.05;2.30;;;18.60;99.90;;;;;;4995937;28;20411;-72
2022/07/04 09:12:48;;;;;;;6.32;2.08;;;18.30;99.90;;;;;;5013334;28;20045;-69
2022/07/04 09:15:15;;;;;;;5.97;2.03;;;18.30;99.90;;;;;;5013506;28;20042;-68
2022/07/04 09:17:40;;;;;;;3.35;1.90;;;18.30;99.90;;;;;;5013177;28;20038;-68
2022/07/04 09:20:21;;;;;;;5.40;2.30;;;18.30;99.90;;;;;;4995468;28;20096;-68
2022/07/04 09:22:49;;;;;;;3.50;1.92;;;18.70;99.90;;;;;;5013508;28;20099;-68
2022/07/04 09:25:16;;;;;;;4.13;1.88;;;18.80;99.90;;;;;;5013208;28;20060;-70
2022/07/04 09:27:44;;;;;;;4.63;1.73;;;18.90;99.90;;;;;;5013314;28;20034;-70
2022/07/04 09:30:11;;;;;;;4.90;1.85;;;19.40;99.90;;;;;;5012657;28;20523;-70
2022/07/04 09:32:46;;;;;;;4.07;1.70;;;19.90;99.90;;;;;;5013153;28;20045;-70
2022/07/04 09:35:20;;;;;;;3.30;1.60;;;20.40;99.90;;;;;;5013205;28;20046;-70
2022/07/04 09:37:51;;;;;;;3.92;1.92;;;20.40;99.90;;;;;;5012347;28;20487;-70
2022/07/04 09:43:22;;;;;;;2.53;1.20;;;19.80;99.90;;;;;;5013084;28;20050;-68
2022/07/04 09:46:00;;;;;;;3.15;1.90;;;19.40;99.90;;;;;;5012940;28;20049;-68
2022/07/04 09:48:26;;;;;;;3.03;1.77;;;19.20;99.90;;;;;;5012822;28;20117;-69
2022/07/04 09:50:52;;;;;;;2.28;1.30;;;19.10;99.90;;;;;;4993698;28;20168;-71
2022/07/04 09:53:17;;;;;;;3.60;1.48;;;19.00;99.90;;;;;;5012778;28;20041;-68
2022/07/04 09:55:45;;;;;;;2.15;1.40;;;19.00;99.90;;;;;;5012841;28;20034;-68
2022/07/04 09:58:14;;;;;;;4.28;1.65;;;19.10;99.90;;;;;;5012729;28;20038;-68
2022/07/04 10:00:45;;;;;;;2.72;1.58;;;19.60;99.90;;;;;;4994650;28;20050;-69
2022/07/04 10:03:28;;;;;;;3.72;1.80;;;19.60;99.90;;;;;;5012605;28;20073;-69
2022/07/04 10:06:15;;;;;;;2.47;1.35;;;19.80;99.90;;;;;;4995317;28;20554;-69
2022/07/04 10:08:42;;;;;;;2.00;1.25;;;19.70;99.90;;;;;;5012492;28;20046;-69
2022/07/04 10:11:09;;;;;;;1.83;1.35;;;19.60;99.90;;;;;;5012343;28;20038;-69
2022/07/04 10:13:35;;;;;;;2.45;1.40;;;19.70;99.90;;;;;;4978464;28;20041;-69
2022/07/04 10:16:00;;;;;;;2.55;1.35;;;19.60;99.90;;;;;;4994677;28;20042;-68
2022/07/04 10:18:26;;;;;;;2.00;1.15;;;19.60;99.90;;;;;;5012420;28;20495;-68
2022/07/04 10:20:53;;;;;;;1.23;1.05;;;19.50;99.90;;;;;;4994323;28;20037;-68
2022/07/04 10:23:20;;;;;;;3.08;1.30;;;19.40;99.90;;;;;;5012187;28;20447;-68
2022/07/04 10:25:50;;;;;;;3.22;1.50;;;19.60;99.90;;;;;;5012249;28;20120;-69
2022/07/04 10:28:17;;;;;;;2.70;1.40;;;19.50;99.90;;;;;;4994360;28;20042;-68
2022/07/04 10:30:47;;;;;;;1.35;0.82;;;19.80;99.90;;;;;;5011839;28;20562;-69
2022/07/04 10:33:13;;;;;;;2.90;1.30;;;20.20;99.90;;;;;;5012443;28;20046;-68
2022/07/04 10:36:02;;;;;;;3.22;1.60;;;20.40;99.90;;;;;;5012303;28;20033;-69
2022/07/04 10:38:28;;;;;;;4.18;1.60;;;20.70;99.90;;;;;;4994721;28;20080;-69
2022/07/04 10:41:07;;;;;;;3.85;1.42;;;20.90;99.90;;;;;;4990803;28;20409;-69
2022/07/04 10:43:41;;;;;;;3.42;1.30;;;20.90;99.90;;;;;;4987807;28;20046;-69
2022/07/04 10:46:16;;;;;;;4.03;2.05;;;20.90;99.90;;;;;;5006277;28;20513;-69
2022/07/04 10:48:56;;;;;;;4.85;1.70;;;21.20;99.90;;;;;;4989817;28;20108;-71
2022/07/04 10:51:41;;;;;;;2.47;1.08;;;21.20;99.90;;;;;;5009258;28;20399;-69
2022/07/04 10:54:09;;;;;;;3.83;1.58;;;21.20;99.90;;;;;;4990214;28;20046;-69
2022/07/04 10:56:41;;;;;;;3.15;1.83;;;21.20;99.90;;;;;;5008260;28;20483;-73
2022/07/04 10:59:09;;;;;;;2.22;1.27;;;21.20;99.90;;;;;;4993033;28;20496;-70
2022/07/04 11:01:35;;;;;;;1.92;1.42;;;21.40;99.70;;;;;;5008232;28;20406;-69
2022/07/04 11:04:00;;;;;;;2.92;1.33;;;21.30;99.90;;;;;;4993817;28;20041;-69
2022/07/04 11:06:29;;;;;;;1.90;1.33;;;21.10;99.90;;;;;;4994256;28;20046;-70
2022/07/04 11:09:30;;;;;;;4.65;1.73;;;20.70;99.10;;;;;;5011834;28;20407;-69
2022/07/04 11:12:01;;;;;;;3.70;1.30;;;20.40;98.70;;;;;;4950999;29;20050;-69
2022/07/04 11:14:36;;;;;;;3.08;1.20;;;20.20;99.90;;;;;;5001112;28;20520;-69
2022/07/04 11:17:04;;;;;;;2.40;1.70;;;20.10;99.90;;;;;;5011765;28;20041;-69
2022/07/04 11:19:30;;;;;;;2.90;1.58;;;20.00;99.90;;;;;;5011380;28;20443;-69
2022/07/04 11:21:56;;;;;;;1.50;1.10;;;19.90;99.90;;;;;;5011611;28;20045;-69
2022/07/04 11:24:23;;;;;;;3.25;1.55;;;20.30;99.90;;;;;;5011478;28;20049;-71
2022/07/04 11:26:48;;;;;;;3.20;1.30;;;20.20;99.60;;;;;;4993703;28;20515;-69
2022/07/04 11:29:15;;;;;;;3.55;1.02;;;20.40;99.90;;;;;;5011209;28;20097;-69
2022/07/04 11:31:43;;;;;;;2.85;1.17;;;20.70;99.90;;;;;;4993748;28;20042;-69
2022/07/04 11:34:09;;;;;;;2.33;1.30;;;20.90;99.90;;;;;;5011564;28;20065;-69
2022/07/04 11:36:35;;;;;;;2.63;1.60;;;21.10;99.90;;;;;;5011456;28;20045;-69
2022/07/04 11:39:04;;;;;;;6.32;1.20;;;21.30;99.70;;;;;;5011339;28;20038;-70
2022/07/04 11:45:02;;;;;;;2.63;1.08;;;21.10;97.30;;;;;;5011412;28;20053;-71
2022/07/04 11:47:41;;;;;;;2.53;1.02;;;20.90;97.50;;;;;;4989361;28;20125;-69
2022/07/04 11:50:18;;;;;;;2.20;0.82;;;20.80;96.10;;;;;;5001548;28;20078;-69
2022/07/04 11:52:53;;;;;;;2.45;1.08;;;20.90;96.70;;;;;;4993492;28;20458;-73
2022/07/04 11:55:19;;;;;;;6.00;1.17;;;20.80;97.10;;;;;;5009345;28;20491;-70
2022/07/04 11:57:47;;;;;;;5.70;1.08;;;20.90;96.90;;;;;;5011230;28;20467;-70
2022/07/04 12:00:15;;;;;;;2.28;0.85;;;21.00;97.70;;;;;;5010585;28;20045;-69
2022/07/04 12:02:42;;;;;;;2.97;1.20;;;20.80;96.30;;;;;;5014641;28;20038;-69
2022/07/04 12:05:10;;;;;;;2.28;1.15;;;20.70;96.40;;;;;;4997392;28;20100;-71
2022/07/04 12:07:38;;;;;;;3.40;0.90;;;20.90;96.50;;;;;;4997315;28;20049;-71
2022/07/04 12:10:16;;;;;;;3.58;1.05;;;21.10;97.60;;;;;;5014261;28;20099;-72
2022/07/04 12:12:59;;;;;;;2.28;0.88;;;21.20;95.30;;;;;;4997126;28;20488;-71
2022/07/04 12:15:35;;;;;;;;;;;21.00;94.40;;;;;;4997508;28;20489;-70
2022/07/04 12:18:01;;;;;;;1.80;0.80;;;21.10;94.30;;;;;;5014589;28;20315;-70
2022/07/04 12:20:27;;;;;;;3.75;1.98;;;21.00;94.80;;;;;;5014164;28;20045;-70
2022/07/04 12:22:55;;;;;;;4.03;1.02;;;21.20;94.80;;;;;;5014422;28;20041;-69
2022/07/04 12:25:36;;;;;;;4.25;1.00;;;21.30;95.00;;;;;;4996850;28;20041;-70
2022/07/04 12:28:10;;;;;;;1.55;1.02;;;21.30;95.60;;;;;;4996947;28;20038;-70
2022/07/04 12:30:56;;;;;;;3.03;1.15;;;21.30;92.80;;;;;;4996381;28;20081;-69
2022/07/04 12:33:27;;;;;;;3.97;1.05;;;21.40;93.60;;;;;;5013186;28;20392;-70
2022/07/04 12:36:00;;;;;;;2.42;0.68;;;21.40;93.30;;;;;;4995851;28;20034;-70
2022/07/04 12:38:29;;;;;;;1.55;1.13;;;21.60;94.10;;;;;;4996191;28;20499;-71
2022/07/04 12:40:58;;;;;;;2.42;0.90;;;21.70;93.60;;;;;;4996283;28;20133;-70
2022/07/04 12:43:41;;;;;;;2.08;0.75;;;21.70;93.40;;;;;;4996623;28;20515;-69
2022/07/04 12:46:08;;;;;;;1.90;0.63;;;21.60;93.00;;;;;;5014351;28;20045;-72
2022/07/04 12:48:33;;;;;;;4.78;0.70;;;21.50;92.40;;;;;;4996505;28;20495;-70
2022/07/04 12:51:24;;;;;;;2.38;0.98;;;21.60;92.80;;;;;;5013867;28;20133;-72
2022/07/04 12:53:52;;;;;;;3.75;0.95;;;21.40;91.00;;;;;;4980036;28;20508;-69
2022/07/04 12:56:47;;;;;;;3.90;1.25;;;21.50;91.90;;;;;;4996145;28;20033;-69
2022/07/04 12:59:16;;;;;;;5.57;1.33;;;21.60;92.10;;;;;;4993903;28;20419;-69
2022/07/04 13:01:43;;;;;;;3.13;0.85;;;21.80;91.70;;;;;;4996191;28;20092;-69
2022/07/04 13:04:09;;;;;;;4.10;0.75;;;22.00;92.10;;;;;;4996341;28;20052;-69
2022/07/04 13:06:35;;;;;;;3.67;1.13;;;22.00;92.70;;;;;;5013626;28;20046;-69
2022/07/04 13:09:02;;;;;;;3.35;1.50;;;21.90;92.30;;;;;;5013392;28;20517;-69
2022/07/04 13:14:12;;;;;;;1.92;1.23;;;21.50;91.00;;;;;;5012671;28;20085;-69